createdAt,value
2018-04-10T00:01:22.870Z,14.63
2018-04-10T00:03:50.297Z,16.67
2018-04-10T00:06:17.722Z,14.82
2018-04-10T00:08:45.194Z,21.10
2018-04-10T00:11:12.646Z,19.60
2018-04-10T00:13:40.077Z,17.45
2018-04-10T00:16:07.582Z,16.75
2018-04-10T00:18:35.074Z,16.98
2018-04-10T00:21:02.525Z,20.33
2018-04-10T00:23:29.997Z,17.02
2018-04-10T00:25:57.470Z,14.75
2018-04-10T00:28:24.898Z,20.02
2018-04-10T00:30:53.122Z,20.10
2018-04-10T00:33:20.589Z,18.42
2018-04-10T00:35:48.067Z,19.08
2018-04-10T00:38:15.500Z,24.23
2018-04-10T00:40:43.698Z,15.50
2018-04-10T00:43:11.888Z,22.60
2018-04-10T00:45:40.193Z,23.92
2018-04-10T00:48:07.666Z,15.60
2018-04-10T00:50:35.098Z,22.70
2018-04-10T00:53:15.118Z,19.48
2018-04-10T00:55:42.550Z,21.02
2018-04-10T00:58:10.756Z,19.90
2018-04-10T01:00:38.186Z,17.30
2018-04-10T01:03:06.377Z,15.43
2018-04-10T01:05:34.565Z,20.33
2018-04-10T01:08:02.786Z,20.70
2018-04-10T01:10:30.209Z,24.20
2018-04-10T01:12:58.442Z,25.75
2018-04-10T01:15:25.870Z,25.52
2018-04-10T01:17:53.307Z,18.50
2018-04-10T01:20:20.735Z,20.35
2018-04-10T01:22:48.167Z,30.12
2018-04-10T01:25:17.102Z,21.98
2018-04-10T01:27:45.310Z,18.00
2018-04-10T01:30:12.734Z,20.90
2018-04-10T01:32:41.683Z,21.55
2018-04-10T01:35:09.158Z,16.80
2018-04-10T01:37:36.595Z,20.08
2018-04-10T01:40:04.886Z,28.95
2018-04-10T01:42:33.102Z,34.70
2018-04-10T01:45:00.529Z,25.62
2018-04-10T01:47:27.962Z,24.05
2018-04-10T01:49:55.386Z,27.42
2018-04-10T01:52:23.594Z,24.37
2018-04-10T01:54:51.017Z,27.55
2018-04-10T01:57:18.534Z,21.10
2018-04-10T01:59:45.958Z,18.25
2018-04-10T02:02:13.473Z,19.87
2018-04-10T02:04:40.916Z,19.55
2018-04-10T02:07:09.134Z,16.60
2018-04-10T02:09:36.562Z,18.00
2018-04-10T02:12:04.790Z,20.00
2018-04-10T02:14:32.257Z,30.42
2018-04-10T02:16:59.725Z,26.65
2018-04-10T02:19:27.194Z,19.75
2018-04-10T02:21:54.621Z,25.67
2018-04-10T02:24:22.051Z,19.00
2018-04-10T02:26:49.474Z,22.27
2018-04-10T02:29:17.689Z,24.98
2018-04-10T02:31:45.157Z,23.33
2018-04-10T02:34:12.577Z,24.58
2018-04-10T02:36:40.063Z,17.02
2018-04-10T02:39:08.258Z,22.60
2018-04-10T02:41:36.457Z,23.20
2018-04-10T02:44:03.883Z,27.83
2018-04-10T02:46:31.417Z,26.20
2018-04-10T02:48:58.857Z,21.70
2018-04-10T02:51:27.071Z,32.58
2018-04-10T02:53:54.642Z,30.08
2018-04-10T02:56:22.109Z,22.08
2018-04-10T02:58:49.541Z,30.90
2018-04-10T03:01:16.963Z,27.67
2018-04-10T03:03:44.422Z,20.98
2018-04-10T03:06:11.887Z,22.75
2018-04-10T03:08:39.322Z,24.45
2018-04-10T03:11:07.550Z,20.37
2018-04-10T03:13:34.981Z,18.70
2018-04-10T03:16:03.176Z,19.75
2018-04-10T03:18:31.390Z,21.52
2018-04-10T03:20:58.818Z,28.17
2018-04-10T03:23:26.249Z,17.70
2018-04-10T03:25:53.697Z,19.48
2018-04-10T03:28:21.165Z,18.62
2018-04-10T03:30:48.638Z,17.83
2018-04-10T03:33:16.107Z,20.52
2018-04-10T03:35:43.530Z,22.30
2018-04-10T03:38:10.970Z,18.27
2018-04-10T03:40:38.389Z,19.45
2018-04-10T03:43:06.614Z,21.27
2018-04-10T03:45:34.031Z,20.65
2018-04-10T03:48:02.221Z,22.48
2018-04-10T03:50:30.445Z,24.20
2018-04-10T03:52:57.913Z,19.75
2018-04-10T03:55:25.337Z,20.30
2018-04-10T03:57:53.545Z,21.75
2018-04-10T04:00:21.749Z,20.33
2018-04-10T04:02:49.176Z,20.08
2018-04-10T04:05:16.607Z,25.15
2018-04-10T04:07:44.034Z,23.90
2018-04-10T04:10:12.237Z,20.33
2018-04-10T04:12:39.665Z,18.27
2018-04-10T04:15:08.602Z,22.20
2018-04-10T04:17:36.793Z,15.77
2018-04-10T04:20:16.934Z,21.58
2018-04-10T04:22:44.362Z,23.73
2018-04-10T04:25:11.818Z,20.48
2018-04-10T04:27:39.296Z,19.95
2018-04-10T04:30:06.758Z,24.65
2018-04-10T04:32:34.233Z,19.73
2018-04-10T04:35:01.661Z,18.15
2018-04-10T04:37:29.886Z,19.10
2018-04-10T04:39:57.317Z,25.90
2018-04-10T04:42:25.545Z,17.02
2018-04-10T04:44:53.021Z,23.00
2018-04-10T04:47:20.438Z,17.10
2018-04-10T04:49:47.917Z,17.55
2018-04-10T04:52:16.130Z,15.40
2018-04-10T04:54:43.566Z,17.23
2018-04-10T04:57:11.078Z,16.60
2018-04-10T04:59:38.554Z,20.48
2018-04-10T05:02:05.986Z,20.17
2018-04-10T05:04:34.182Z,17.12
2018-04-10T05:07:02.373Z,20.60
2018-04-10T05:09:29.859Z,17.05
2018-04-10T05:11:57.389Z,23.08
2018-04-10T05:14:24.823Z,17.12
2018-04-10T05:16:52.245Z,21.37
2018-04-10T05:19:20.697Z,18.50
2018-04-10T05:21:48.136Z,16.62
2018-04-10T05:24:15.586Z,20.40
2018-04-10T05:26:43.074Z,19.15
2018-04-10T05:29:10.503Z,18.17
2018-04-10T05:31:38.694Z,18.98
2018-04-10T05:34:06.914Z,25.77
2018-04-10T05:36:34.385Z,16.65
2018-04-10T05:39:01.814Z,15.02
2018-04-10T05:41:30.750Z,20.75
2018-04-10T05:43:58.178Z,23.95
2018-04-10T05:46:25.697Z,19.65
2018-04-10T05:48:54.038Z,22.10
2018-04-10T05:51:21.664Z,23.38
2018-04-10T05:53:49.842Z,17.90
2018-04-10T05:56:17.322Z,17.92
2018-04-10T05:58:44.823Z,18.12
2018-04-10T06:01:12.218Z,15.13
2018-04-10T06:03:39.733Z,18.37
2018-04-10T06:06:07.201Z,16.40
2018-04-10T06:08:34.634Z,18.80
2018-04-10T06:11:02.141Z,19.23
2018-04-10T06:13:29.622Z,21.08
2018-04-10T06:15:57.048Z,18.25
2018-04-10T06:18:25.270Z,19.58
2018-04-10T06:20:52.709Z,17.00
2018-04-10T06:23:20.918Z,19.60
2018-04-10T06:25:48.398Z,16.33
2018-04-10T06:28:15.817Z,28.65
2018-04-10T06:30:43.334Z,23.05
2018-04-10T06:33:10.805Z,22.30
2018-04-10T06:35:38.273Z,29.37
2018-04-10T06:38:05.698Z,21.73
2018-04-10T06:40:33.213Z,22.35
2018-04-10T06:43:00.685Z,21.25
2018-04-10T06:45:28.153Z,23.67
2018-04-10T06:47:55.574Z,23.95
2018-04-10T06:50:23.006Z,23.83
2018-04-10T06:52:50.462Z,26.42
2018-04-10T06:55:17.929Z,23.80
2018-04-10T06:57:45.357Z,25.58
2018-04-10T07:00:12.869Z,21.40
2018-04-10T07:02:40.394Z,21.45
2018-04-10T07:05:07.770Z,25.88
2018-04-10T07:07:35.282Z,24.73
2018-04-10T07:10:02.758Z,24.60
2018-04-10T07:12:30.186Z,34.35
2018-04-10T07:14:58.379Z,27.62
2018-04-10T07:17:26.594Z,33.60
2018-04-10T07:19:54.066Z,24.92
2018-04-10T07:22:21.531Z,31.15
2018-04-10T07:24:48.946Z,27.20
2018-04-10T07:27:16.382Z,33.53
2018-04-10T07:29:43.807Z,32.58
2018-04-10T07:32:12.030Z,28.90
2018-04-10T07:34:39.454Z,32.80
2018-04-10T07:37:07.786Z,31.45
2018-04-10T07:39:35.220Z,34.42
2018-04-10T07:42:02.730Z,31.87
2018-04-10T07:44:30.159Z,33.28
2018-04-10T07:46:57.662Z,34.97
2018-04-10T07:49:25.122Z,35.20
2018-04-10T07:51:52.559Z,39.45
2018-04-10T07:54:19.994Z,40.10
2018-04-10T07:56:47.422Z,34.90
2018-04-10T07:59:15.617Z,36.95
2018-04-10T08:01:43.101Z,36.75
2018-04-10T08:04:10.569Z,34.50
2018-04-10T08:06:38.045Z,38.60
2018-04-10T08:09:05.514Z,38.53
2018-04-10T08:11:32.982Z,35.72
2018-04-10T08:14:00.450Z,37.63
2018-04-10T08:16:27.874Z,41.37
2018-04-10T08:18:55.305Z,48.15
2018-04-10T08:21:22.754Z,38.33
2018-04-10T08:23:50.186Z,42.97
2018-04-10T08:26:17.698Z,37.72
2018-04-10T08:28:45.134Z,40.88
2018-04-10T08:31:13.330Z,42.03
2018-04-10T08:33:41.566Z,43.70
2018-04-10T08:36:09.001Z,43.60
2018-04-10T08:38:36.424Z,40.05
2018-04-10T08:41:03.951Z,45.28
2018-04-10T08:43:31.374Z,37.38
2018-04-10T08:45:58.891Z,31.77
2018-04-10T08:48:26.358Z,36.92
2018-04-10T08:50:53.790Z,38.22
2018-04-10T08:53:21.990Z,45.63
2018-04-10T08:55:50.186Z,38.63
2018-04-10T08:58:17.610Z,36.92
2018-04-10T09:00:45.146Z,41.30
2018-04-10T09:03:12.566Z,33.67
2018-04-10T09:05:39.993Z,38.20
2018-04-10T09:08:07.426Z,33.67
2018-04-10T09:10:35.633Z,31.75
2018-04-10T09:13:03.106Z,35.42
2018-04-10T09:15:30.570Z,38.05
2018-04-10T09:17:58.042Z,35.70
2018-04-10T09:20:25.478Z,36.00
2018-04-10T09:22:53.662Z,33.05
2018-04-10T09:25:21.891Z,36.03
2018-04-10T09:27:49.318Z,32.40
2018-04-10T09:30:16.830Z,31.90
2018-04-10T09:32:44.295Z,34.80
2018-04-10T09:35:11.685Z,30.77
2018-04-10T09:37:39.115Z,33.55
2018-04-10T09:40:07.326Z,33.85
2018-04-10T09:42:34.794Z,41.30
2018-04-10T09:45:02.230Z,33.42
2018-04-10T09:47:30.424Z,32.88
2018-04-10T09:49:58.622Z,32.55
2018-04-10T09:52:26.209Z,33.13
2018-04-10T09:54:53.642Z,28.27
2018-04-10T09:57:21.873Z,30.27
2018-04-10T09:59:49.338Z,22.33
2018-04-10T10:02:16.805Z,27.23
2018-04-10T10:04:44.237Z,27.90
2018-04-10T10:07:11.657Z,23.30
2018-04-10T10:09:39.118Z,19.37
2018-04-10T10:12:06.544Z,13.13
2018-04-10T10:14:34.050Z,13.15
2018-04-10T10:17:01.475Z,8.10
2018-04-10T10:19:28.902Z,10.15
2018-04-10T10:21:56.358Z,10.90
2018-04-10T10:24:23.830Z,13.35
2018-04-10T10:26:51.302Z,11.65
2018-04-10T10:29:18.728Z,10.18
2018-04-10T10:31:47.674Z,10.57
2018-04-10T10:34:15.138Z,8.80
2018-04-10T10:36:42.614Z,6.30
2018-04-10T10:39:10.137Z,6.00
2018-04-10T10:41:37.514Z,6.85
2018-04-10T10:44:05.693Z,6.47
2018-04-10T10:46:33.125Z,6.10
2018-04-10T10:49:00.537Z,6.35
2018-04-10T10:51:28.046Z,3.85
2018-04-10T10:53:55.470Z,3.65
2018-04-10T10:56:22.982Z,4.15
2018-04-10T10:58:50.458Z,2.28
2018-04-10T11:01:17.880Z,6.70
2018-04-10T11:03:45.299Z,2.83
2018-04-10T11:06:12.718Z,6.47
2018-04-10T11:08:40.138Z,1.98
2018-04-10T11:11:07.567Z,2.90
2018-04-10T11:13:35.791Z,2.65
2018-04-10T11:16:03.214Z,2.62
2018-04-10T11:18:31.402Z,2.60
2018-04-10T11:20:58.826Z,3.92
2018-04-10T11:23:26.286Z,2.65
2018-04-10T11:25:53.714Z,3.05
2018-04-10T11:28:21.134Z,2.97
2018-04-10T11:30:48.557Z,6.57
2018-04-10T11:33:16.742Z,2.00
2018-04-10T11:35:44.942Z,4.90
2018-04-10T11:38:13.127Z,5.53
2018-04-10T11:40:41.318Z,1.83
2018-04-10T11:43:09.498Z,4.55
2018-04-10T11:45:37.695Z,1.67
2018-04-10T11:48:05.898Z,1.77
2018-04-10T11:50:33.322Z,3.78
2018-04-10T11:53:00.746Z,0.90
2018-04-10T11:55:28.206Z,2.30
2018-04-10T11:57:55.677Z,0.90
2018-04-10T12:00:23.145Z,1.10
2018-04-10T12:02:50.570Z,0.82
2018-04-10T12:05:17.998Z,3.87
2018-04-10T12:07:45.418Z,0.93
2018-04-10T12:10:13.643Z,0.85
2018-04-10T12:12:41.053Z,3.80
2018-04-10T12:15:08.579Z,0.80
2018-04-10T12:17:36.742Z,1.12
2018-04-10T12:20:05.081Z,2.58
2018-04-10T12:22:32.498Z,1.12
2018-04-10T12:25:00.710Z,2.78
2018-04-10T12:27:28.130Z,5.43
2018-04-10T12:29:55.652Z,1.08
2018-04-10T12:32:23.069Z,0.75
2018-04-10T12:34:50.491Z,4.00
2018-04-10T12:37:17.914Z,0.82
2018-04-10T12:39:45.426Z,2.35
2018-04-10T12:42:12.854Z,1.50
2018-04-10T12:44:40.366Z,3.35
2018-04-10T12:47:07.837Z,3.47
2018-04-10T12:49:35.254Z,2.62
2018-04-10T12:52:03.509Z,1.65
2018-04-10T12:54:31.255Z,1.20
2018-04-10T12:56:58.716Z,1.52
2018-04-10T12:59:26.926Z,2.97
2018-04-10T13:01:54.359Z,1.20
2018-04-10T13:04:21.778Z,1.35
2018-04-10T13:06:49.230Z,3.92
2018-04-10T13:09:16.645Z,2.45
2018-04-10T13:11:44.198Z,1.80
2018-04-10T13:14:11.621Z,1.15
2018-04-10T13:16:39.819Z,4.22
2018-04-10T13:19:07.242Z,0.93
2018-04-10T13:21:34.670Z,1.50
2018-04-10T13:24:02.142Z,2.08
2018-04-10T13:26:29.561Z,1.23
2018-04-10T13:28:56.985Z,2.58
2018-04-10T13:31:24.443Z,5.15
2018-04-10T13:33:51.866Z,1.48
2018-04-10T13:36:20.803Z,3.85
2018-04-10T13:38:48.226Z,2.33
2018-04-10T13:41:15.658Z,1.85
2018-04-10T13:43:43.121Z,4.55
2018-04-10T13:46:10.503Z,2.80
2018-04-10T13:48:37.926Z,3.03
2018-04-10T13:51:05.345Z,2.67
2018-04-10T13:53:32.806Z,4.40
2018-04-10T13:56:00.270Z,2.12
2018-04-10T13:58:27.698Z,2.10
2018-04-10T14:00:55.215Z,4.43
2018-04-10T14:03:22.630Z,3.75
2018-04-10T14:05:50.054Z,2.08
2018-04-10T14:08:17.470Z,4.72
2018-04-10T14:10:44.982Z,3.55
2018-04-10T14:13:12.454Z,8.93
2018-04-10T14:15:39.926Z,1.02
2018-04-10T14:18:07.350Z,8.43
2018-04-10T14:20:34.778Z,2.30
2018-04-10T14:23:02.190Z,3.35
2018-04-10T14:25:29.617Z,3.08
2018-04-10T14:27:57.044Z,2.28
2018-04-10T14:30:25.229Z,1.48
2018-04-10T14:32:53.445Z,4.78
2018-04-10T14:35:20.857Z,2.28
2018-04-10T14:37:48.406Z,2.97
2018-04-10T14:40:15.802Z,7.15
2018-04-10T14:42:43.234Z,2.70
2018-04-10T14:45:10.702Z,2.20
2018-04-10T14:47:38.128Z,6.25
2018-04-10T14:50:05.635Z,8.18
2018-04-10T14:52:33.084Z,1.85
2018-04-10T14:55:00.494Z,5.55
2018-04-10T14:57:27.929Z,3.15
2018-04-10T14:59:55.341Z,5.40
2018-04-10T15:02:22.766Z,1.40
2018-04-10T15:04:50.186Z,4.15
2018-04-10T15:07:17.718Z,2.65
2018-04-10T15:09:45.153Z,4.55
2018-04-10T15:12:13.345Z,3.10
2018-04-10T15:14:41.530Z,1.60
2018-04-10T15:17:09.742Z,1.20
2018-04-10T15:19:37.163Z,2.55
2018-04-10T15:22:05.410Z,2.70
2018-04-10T15:24:32.878Z,2.25
2018-04-10T15:27:00.297Z,3.75
2018-04-10T15:29:27.726Z,6.78
2018-04-10T15:31:55.154Z,2.33
2018-04-10T15:34:23.334Z,2.55
2018-04-10T15:36:51.555Z,1.98
2018-04-10T15:39:18.971Z,2.35
2018-04-10T15:41:46.490Z,4.57
2018-04-10T15:44:13.962Z,3.95
2018-04-10T15:46:41.382Z,3.47
2018-04-10T15:49:10.309Z,7.32
2018-04-10T15:51:38.522Z,2.95
2018-04-10T15:54:05.999Z,5.30
2018-04-10T15:56:33.462Z,4.20
2018-04-10T15:59:00.885Z,1.42
2018-04-10T16:01:28.402Z,1.50
2018-04-10T16:03:56.593Z,2.50
2018-04-10T16:06:24.057Z,1.65
2018-04-10T16:08:51.529Z,5.35
2018-04-10T16:11:18.950Z,1.67
2018-04-10T16:13:46.370Z,1.77
2018-04-10T16:16:13.794Z,3.25
2018-04-10T16:18:41.213Z,4.07
2018-04-10T16:21:08.680Z,3.33
2018-04-10T16:23:36.107Z,3.15
2018-04-10T16:26:03.530Z,7.75
2018-04-10T16:28:30.986Z,5.97
2018-04-10T16:30:58.451Z,3.62
2018-04-10T16:33:25.934Z,2.85
2018-04-10T16:35:53.389Z,3.65
2018-04-10T16:38:20.862Z,3.92
2018-04-10T16:40:48.283Z,3.62
2018-04-10T16:43:15.714Z,5.78
2018-04-10T16:45:43.126Z,3.12
2018-04-10T16:48:10.550Z,5.00
2018-04-10T16:50:37.984Z,4.32
2018-04-10T16:53:06.162Z,5.43
2018-04-10T16:55:34.354Z,5.97
2018-04-10T16:58:02.533Z,2.47
2018-04-10T17:00:30.758Z,10.20
2018-04-10T17:02:58.226Z,7.37
2018-04-10T17:05:25.645Z,4.87
2018-04-10T17:07:53.888Z,4.72
2018-04-10T17:10:21.313Z,6.20
2018-04-10T17:12:49.542Z,7.97
2018-04-10T17:15:16.977Z,10.15
2018-04-10T17:17:45.162Z,5.22
2018-04-10T17:20:13.367Z,10.75
2018-04-10T17:22:41.550Z,3.00
2018-04-10T17:25:09.746Z,5.22
2018-04-10T17:27:37.165Z,1.60
2018-04-10T17:30:04.592Z,4.32
2018-04-10T17:32:32.014Z,1.85
2018-04-10T17:34:59.538Z,4.82
2018-04-10T17:37:27.006Z,2.45
2018-04-10T17:39:54.430Z,3.03
2018-04-10T17:42:21.850Z,4.12
2018-04-10T17:44:49.278Z,3.97
2018-04-10T17:47:17.497Z,7.43
2018-04-10T17:49:44.913Z,3.17
2018-04-10T17:52:12.338Z,3.03
2018-04-10T17:54:39.757Z,7.50
2018-04-10T17:57:08.712Z,2.75
2018-04-10T17:59:36.184Z,1.58
2018-04-10T18:02:03.610Z,3.80
2018-04-10T18:04:31.834Z,2.92
2018-04-10T18:06:59.266Z,2.80
2018-04-10T18:09:26.778Z,4.47
2018-04-10T18:11:54.439Z,5.20
2018-04-10T18:14:21.826Z,1.37
2018-04-10T18:16:49.249Z,2.42
2018-04-10T18:19:17.429Z,7.30
2018-04-10T18:21:44.854Z,5.70
2018-04-10T18:24:12.321Z,1.50
2018-04-10T18:26:39.778Z,2.70
2018-04-10T18:29:07.262Z,4.35
2018-04-10T18:31:34.692Z,0.88
2018-04-10T18:34:02.881Z,2.05
2018-04-10T18:36:31.070Z,1.15
2018-04-10T18:38:59.259Z,2.97
2018-04-10T18:41:27.479Z,3.58
2018-04-10T18:43:54.881Z,0.93
2018-04-10T18:46:22.299Z,1.20
2018-04-10T18:48:49.734Z,1.80
2018-04-10T18:51:17.922Z,5.10
2018-04-10T18:53:46.154Z,1.83
2018-04-10T18:56:13.570Z,4.32
2018-04-10T18:58:40.994Z,3.47
2018-04-10T19:01:08.457Z,1.73
2018-04-10T19:03:35.877Z,0.70
2018-04-10T19:06:03.394Z,0.50
2018-04-10T19:08:30.826Z,1.33
2018-04-10T19:10:59.014Z,0.90
2018-04-10T19:13:26.478Z,0.88
2018-04-10T19:15:53.898Z,1.85
2018-04-10T19:18:21.371Z,0.93
2018-04-10T19:20:48.827Z,3.95
2018-04-10T19:23:16.311Z,1.12
2018-04-10T19:25:43.793Z,5.30
2018-04-10T19:28:11.222Z,1.35
2018-04-10T19:30:39.421Z,2.08
2018-04-10T19:33:06.841Z,1.83
2018-04-10T19:35:34.271Z,1.17
2018-04-10T19:38:01.690Z,1.55
2018-04-10T19:40:29.120Z,1.37
2018-04-10T19:42:56.538Z,0.47
2018-04-10T19:45:24.734Z,3.30
2018-04-10T19:47:52.926Z,2.72
2018-04-10T19:50:21.113Z,1.27
2018-04-10T19:52:48.579Z,1.55
2018-04-10T19:55:15.971Z,1.30
2018-04-10T19:57:43.390Z,0.50
2018-04-10T20:00:10.910Z,0.50
2018-04-10T20:02:38.334Z,0.60
2018-04-10T20:05:06.521Z,0.35
2018-04-10T20:07:33.942Z,0.98
2018-04-10T20:10:01.378Z,0.73
2018-04-10T20:12:29.566Z,1.10
2018-04-10T20:14:57.758Z,1.83
2018-04-10T20:17:25.174Z,3.80
2018-04-10T20:19:52.598Z,4.35
2018-04-10T20:22:20.023Z,2.15
2018-04-10T20:24:47.433Z,0.50
2018-04-10T20:27:14.866Z,1.70
2018-04-10T20:29:42.286Z,5.45
2018-04-10T20:32:09.714Z,1.10
2018-04-10T20:34:38.666Z,0.80
2018-04-10T20:37:06.094Z,1.20
2018-04-10T20:39:34.278Z,3.12
2018-04-10T20:42:02.505Z,1.52
2018-04-10T20:44:29.926Z,2.22
2018-04-10T20:46:57.350Z,0.57
2018-04-10T20:49:24.761Z,1.30
2018-04-10T20:51:52.279Z,0.50
2018-04-10T20:54:19.702Z,1.20
2018-04-10T20:56:47.129Z,2.70
2018-04-10T20:59:14.594Z,1.33
2018-04-10T21:01:42.063Z,6.60
2018-04-10T21:04:09.486Z,1.70
2018-04-10T21:06:37.702Z,0.62
2018-04-10T21:09:06.112Z,2.87
2018-04-10T21:11:33.545Z,1.37
2018-04-10T21:14:00.949Z,1.02
2018-04-10T21:16:28.417Z,4.12
2018-04-10T21:18:55.885Z,2.65
2018-04-10T21:21:23.301Z,2.15
2018-04-10T21:23:52.238Z,2.55
2018-04-10T21:26:20.427Z,3.95
2018-04-10T21:28:48.630Z,3.62
2018-04-10T21:31:16.046Z,1.50
2018-04-10T21:33:43.570Z,1.40
2018-04-10T21:36:11.138Z,1.37
2018-04-10T21:38:38.621Z,1.95
2018-04-10T21:41:06.043Z,3.45
2018-04-10T21:43:33.470Z,2.45
2018-04-10T21:46:00.922Z,2.00
2018-04-10T21:48:28.354Z,6.70
2018-04-10T21:50:55.861Z,6.78
2018-04-10T21:53:23.326Z,2.85
2018-04-10T21:55:50.806Z,3.87
2018-04-10T21:58:18.269Z,2.97
2018-04-10T22:00:45.686Z,3.80
2018-04-10T22:03:13.113Z,3.08
2018-04-10T22:05:40.538Z,3.00
2018-04-10T22:08:08.046Z,3.30
2018-04-10T22:10:35.463Z,3.30
2018-04-10T22:13:02.885Z,4.32
2018-04-10T22:15:30.315Z,8.07
2018-04-10T22:17:59.233Z,3.25
2018-04-10T22:20:26.729Z,4.45
2018-04-10T22:22:54.146Z,8.10
2018-04-10T22:25:21.668Z,4.65
2018-04-10T22:27:49.834Z,7.35
2018-04-10T22:30:18.025Z,2.25
2018-04-10T22:32:45.491Z,7.03
2018-04-10T22:35:12.953Z,5.03
2018-04-10T22:37:40.373Z,5.82
2018-04-10T22:40:07.798Z,4.00
2018-04-10T22:42:35.259Z,4.45
2018-04-10T22:45:02.682Z,7.53
2018-04-10T22:47:30.206Z,7.60
2018-04-10T22:49:57.671Z,2.87
2018-04-10T22:52:25.090Z,6.35
2018-04-10T22:54:52.514Z,6.68
2018-04-10T22:57:19.989Z,2.25
2018-04-10T22:59:47.451Z,3.17
2018-04-10T23:02:14.866Z,7.15
2018-04-10T23:04:42.395Z,3.67
2018-04-10T23:07:09.818Z,5.68
2018-04-10T23:09:37.246Z,4.95
2018-04-10T23:12:04.673Z,5.65
2018-04-10T23:14:32.093Z,5.03
2018-04-10T23:16:59.538Z,7.37
2018-04-10T23:19:27.746Z,8.05
2018-04-10T23:21:55.283Z,5.85
2018-04-10T23:24:22.703Z,6.90
2018-04-10T23:26:50.134Z,6.30
2018-04-10T23:29:18.350Z,6.07
2018-04-10T23:31:45.782Z,3.40
2018-04-10T23:34:14.011Z,7.03
2018-04-10T23:36:41.472Z,4.93
2018-04-10T23:39:08.959Z,6.93
2018-04-10T23:41:36.382Z,3.30
2018-04-10T23:44:04.571Z,2.55
2018-04-10T23:46:32.082Z,2.08
2018-04-10T23:48:59.504Z,5.05
2018-04-10T23:51:27.707Z,3.83
2018-04-10T23:53:55.895Z,3.17
2018-04-10T23:56:24.083Z,6.60
2018-04-10T23:58:53.258Z,9.82
